עמוד ראשי
METAR-TAF:

METAR-TAF

שדות תעופה :

סאפורו, יפן

קו רוחב: 43-07N, קו אורך: 141-23E, גובה: 8מטר

תצפית מזג אוויר נוכחית

הדו"ח נערך לפני 6 שעות ו 20דקות, בשעה 11:00 UTC
רוח 6קשר מכיוון צפון-מערב
טמפרטורת 21 צלסיוס
לחות 78%
לחץ 1017 hPa
ראות 10 קילומטר או יותר
מעט עננים בגובה 3000רגל
עננים פזורים בגובה 5000רגל
עננים בינוניים בגובה 23000רגל

METAR: RJCO 141100Z 31006KT 9999 FEW030 SCT050 BKN230 21/17 Q1017

זמן: 02:20 (17:20 UTC)


TAF: חסר

תצפיות ותחזיות מזג אוויר לגבי יותר מ- 4,000 שדות תעופה ברחבי העולם. דוחות METAR ו- TAF.

התחנות הזמינות מסומנות בנקודות צהובות ואדומות על גבי המפה.

העבר את העכבר לנקודה הצבעונית על מנת לראות את שם התחנה.

לאחר מכן, לחץ כדי לראות את תוכן ואת תחזיות מזג האוויר.

כדי לשנות את המפה: לחץ על הכפתורים הירוקים עם הפלוס השחור כדי להתקרב; על הכפתור הירוק עם המקף כדי להתרחק; או בחיצים הירוקים למפות סמוכות.


METAR-TAF: